sensor_id;sensor_type;location;lat;lon;timestamp;temperature;humidity
52859;DHT22;38721;53.098;6.596;2024-03-06T00:01:09;4.90;99.90
52859;DHT22;38721;53.098;6.596;2024-03-06T00:03:34;4.90;99.90
52859;DHT22;38721;53.098;6.596;2024-03-06T00:06:00;4.90;99.90
52859;DHT22;38721;53.098;6.596;2024-03-06T00:08:26;4.90;99.90
52859;DHT22;38721;53.098;6.596;2024-03-06T00:10:51;4.90;99.90
52859;DHT22;38721;53.098;6.596;2024-03-06T00:13:17;4.90;99.90
52859;DHT22;38721;53.098;6.596;2024-03-06T00:15:43;4.90;99.90
52859;DHT22;38721;53.098;6.596;2024-03-06T00:18:09;4.90;99.90
52859;DHT22;38721;53.098;6.596;2024-03-06T00:20:35;4.90;99.90
52859;DHT22;38721;53.098;6.596;2024-03-06T00:23:02;4.90;99.90
52859;DHT22;38721;53.098;6.596;2024-03-06T00:25:28;4.80;99.90
52859;DHT22;38721;53.098;6.596;2024-03-06T00:27:54;4.80;99.90
52859;DHT22;38721;53.098;6.596;2024-03-06T00:30:19;4.80;99.90
52859;DHT22;38721;53.098;6.596;2024-03-06T00:32:45;4.80;99.90
52859;DHT22;38721;53.098;6.596;2024-03-06T00:35:11;4.80;99.90
52859;DHT22;38721;53.098;6.596;2024-03-06T00:37:37;4.80;99.90
52859;DHT22;38721;53.098;6.596;2024-03-06T00:40:03;4.80;99.90
52859;DHT22;38721;53.098;6.596;2024-03-06T00:42:29;4.80;99.90
52859;DHT22;38721;53.098;6.596;2024-03-06T00:44:55;4.80;99.90
52859;DHT22;38721;53.098;6.596;2024-03-06T00:47:21;4.80;99.90
52859;DHT22;38721;53.098;6.596;2024-03-06T00:49:47;4.80;99.90
52859;DHT22;38721;53.098;6.596;2024-03-06T00:52:13;4.80;99.90
52859;DHT22;38721;53.098;6.596;2024-03-06T00:54:38;4.90;99.90
52859;DHT22;38721;53.098;6.596;2024-03-06T00:57:04;4.80;99.90
52859;DHT22;38721;53.098;6.596;2024-03-06T00:59:31;4.80;99.90
52859;DHT22;38721;53.098;6.596;2024-03-06T01:01:57;4.80;99.90
52859;DHT22;38721;53.098;6.596;2024-03-06T01:04:26;4.80;99.90
52859;DHT22;38721;53.098;6.596;2024-03-06T01:06:58;4.80;99.90
52859;DHT22;38721;53.098;6.596;2024-03-06T01:09:24;4.80;99.90
52859;DHT22;38721;53.098;6.596;2024-03-06T01:11:50;4.80;99.90
52859;DHT22;38721;53.098;6.596;2024-03-06T01:14:16;4.80;99.90
52859;DHT22;38721;53.098;6.596;2024-03-06T01:16:42;4.80;99.90
52859;DHT22;38721;53.098;6.596;2024-03-06T01:19:08;4.80;99.90
52859;DHT22;38721;53.098;6.596;2024-03-06T01:21:34;4.80;99.90
52859;DHT22;38721;53.098;6.596;2024-03-06T01:24:01;4.80;99.90
52859;DHT22;38721;53.098;6.596;2024-03-06T01:26:26;4.80;99.90
52859;DHT22;38721;53.098;6.596;2024-03-06T01:28:52;4.80;99.90
52859;DHT22;38721;53.098;6.596;2024-03-06T01:31:18;4.80;99.90
52859;DHT22;38721;53.098;6.596;2024-03-06T01:33:44;4.80;99.90
52859;DHT22;38721;53.098;6.596;2024-03-06T01:36:09;4.80;99.90
52859;DHT22;38721;53.098;6.596;2024-03-06T01:38:35;4.80;99.90
52859;DHT22;38721;53.098;6.596;2024-03-06T01:41:04;4.80;99.90
52859;DHT22;38721;53.098;6.596;2024-03-06T01:43:37;4.80;99.90
52859;DHT22;38721;53.098;6.596;2024-03-06T01:46:04;4.80;99.90
52859;DHT22;38721;53.098;6.596;2024-03-06T01:48:30;4.80;99.90
52859;DHT22;38721;53.098;6.596;2024-03-06T01:50:59;4.80;99.90
52859;DHT22;38721;53.098;6.596;2024-03-06T01:53:27;4.80;99.90
52859;DHT22;38721;53.098;6.596;2024-03-06T01:55:55;4.80;99.90
52859;DHT22;38721;53.098;6.596;2024-03-06T01:58:21;4.80;99.90
52859;DHT22;38721;53.098;6.596;2024-03-06T02:00:47;4.80;99.90
52859;DHT22;38721;53.098;6.596;2024-03-06T02:03:14;4.80;99.90
52859;DHT22;38721;53.098;6.596;2024-03-06T02:05:40;4.80;99.90
52859;DHT22;38721;53.098;6.596;2024-03-06T02:08:07;4.80;99.90
52859;DHT22;38721;53.098;6.596;2024-03-06T02:10:33;4.80;99.90
52859;DHT22;38721;53.098;6.596;2024-03-06T02:13:00;4.80;99.90
52859;DHT22;38721;53.098;6.596;2024-03-06T02:15:26;4.80;99.90
52859;DHT22;38721;53.098;6.596;2024-03-06T02:17:52;4.80;99.90
52859;DHT22;38721;53.098;6.596;2024-03-06T02:20:25;4.70;99.90
52859;DHT22;38721;53.098;6.596;2024-03-06T02:22:51;4.70;99.90
52859;DHT22;38721;53.098;6.596;2024-03-06T02:25:17;4.70;99.90
52859;DHT22;38721;53.098;6.596;2024-03-06T02:27:44;4.70;99.90
52859;DHT22;38721;53.098;6.596;2024-03-06T02:30:10;4.80;99.90
52859;DHT22;38721;53.098;6.596;2024-03-06T02:32:39;4.80;99.90
52859;DHT22;38721;53.098;6.596;2024-03-06T02:35:05;4.70;99.90
52859;DHT22;38721;53.098;6.596;2024-03-06T02:37:34;4.70;99.90
52859;DHT22;38721;53.098;6.596;2024-03-06T02:40:00;4.70;99.90
52859;DHT22;38721;53.098;6.596;2024-03-06T02:42:28;4.70;99.90
52859;DHT22;38721;53.098;6.596;2024-03-06T02:44:54;4.70;99.90
52859;DHT22;38721;53.098;6.596;2024-03-06T02:47:20;4.70;99.90
52859;DHT22;38721;53.098;6.596;2024-03-06T02:49:46;4.80;99.90
52859;DHT22;38721;53.098;6.596;2024-03-06T02:52:12;4.70;99.90
52859;DHT22;38721;53.098;6.596;2024-03-06T02:54:38;4.70;99.90
52859;DHT22;38721;53.098;6.596;2024-03-06T02:57:09;4.70;99.90
52859;DHT22;38721;53.098;6.596;2024-03-06T02:59:34;4.70;99.90
52859;DHT22;38721;53.098;6.596;2024-03-06T03:02:00;4.70;99.90
52859;DHT22;38721;53.098;6.596;2024-03-06T03:04:27;4.70;99.90
52859;DHT22;38721;53.098;6.596;2024-03-06T03:06:52;4.70;99.90
52859;DHT22;38721;53.098;6.596;2024-03-06T03:09:18;4.70;99.90
52859;DHT22;38721;53.098;6.596;2024-03-06T03:11:44;4.70;99.90
52859;DHT22;38721;53.098;6.596;2024-03-06T03:14:10;4.70;99.90
52859;DHT22;38721;53.098;6.596;2024-03-06T03:16:35;4.70;99.90
52859;DHT22;38721;53.098;6.596;2024-03-06T03:19:01;4.60;99.90
52859;DHT22;38721;53.098;6.596;2024-03-06T03:21:27;4.70;99.90
52859;DHT22;38721;53.098;6.596;2024-03-06T03:23:53;4.60;99.90
52859;DHT22;38721;53.098;6.596;2024-03-06T03:26:19;4.60;99.90
52859;DHT22;38721;53.098;6.596;2024-03-06T03:28:45;4.60;99.90
52859;DHT22;38721;53.098;6.596;2024-03-06T03:31:10;4.60;99.90
52859;DHT22;38721;53.098;6.596;2024-03-06T03:33:40;4.60;99.90
52859;DHT22;38721;53.098;6.596;2024-03-06T03:36:07;4.60;99.90
52859;DHT22;38721;53.098;6.596;2024-03-06T03:38:33;4.60;99.90
52859;DHT22;38721;53.098;6.596;2024-03-06T03:41:07;4.60;99.90
52859;DHT22;38721;53.098;6.596;2024-03-06T03:43:33;4.50;99.90
52859;DHT22;38721;53.098;6.596;2024-03-06T03:45:59;4.60;99.90
52859;DHT22;38721;53.098;6.596;2024-03-06T03:48:25;4.60;99.90
52859;DHT22;38721;53.098;6.596;2024-03-06T03:50:51;4.60;99.90
52859;DHT22;38721;53.098;6.596;2024-03-06T03:53:16;4.50;99.90
52859;DHT22;38721;53.098;6.596;2024-03-06T03:55:42;4.50;99.90
52859;DHT22;38721;53.098;6.596;2024-03-06T03:58:08;4.50;99.90
52859;DHT22;38721;53.098;6.596;2024-03-06T04:00:34;4.50;99.90
52859;DHT22;38721;53.098;6.596;2024-03-06T04:02:59;4.40;99.90
52859;DHT22;38721;53.098;6.596;2024-03-06T04:05:25;4.50;99.90
52859;DHT22;38721;53.098;6.596;2024-03-06T04:07:51;4.50;99.90
52859;DHT22;38721;53.098;6.596;2024-03-06T04:10:17;4.50;99.90
52859;DHT22;38721;53.098;6.596;2024-03-06T04:12:42;4.50;99.90
52859;DHT22;38721;53.098;6.596;2024-03-06T04:15:09;4.50;99.90
52859;DHT22;38721;53.098;6.596;2024-03-06T04:17:35;4.50;99.90
52859;DHT22;38721;53.098;6.596;2024-03-06T04:20:02;4.50;99.90
52859;DHT22;38721;53.098;6.596;2024-03-06T04:22:29;4.50;99.90
52859;DHT22;38721;53.098;6.596;2024-03-06T04:24:55;4.40;99.90
52859;DHT22;38721;53.098;6.596;2024-03-06T04:27:22;4.50;99.90
52859;DHT22;38721;53.098;6.596;2024-03-06T04:29:47;4.50;99.90
52859;DHT22;38721;53.098;6.596;2024-03-06T04:32:13;4.50;99.90
52859;DHT22;38721;53.098;6.596;2024-03-06T04:34:39;4.50;99.90
52859;DHT22;38721;53.098;6.596;2024-03-06T04:37:04;4.50;99.90
52859;DHT22;38721;53.098;6.596;2024-03-06T04:39:32;4.50;99.90
52859;DHT22;38721;53.098;6.596;2024-03-06T04:41:58;4.40;99.90
52859;DHT22;38721;53.098;6.596;2024-03-06T04:44:23;4.50;99.90
52859;DHT22;38721;53.098;6.596;2024-03-06T04:46:52;4.50;99.90
52859;DHT22;38721;53.098;6.596;2024-03-06T04:49:18;4.40;99.90
52859;DHT22;38721;53.098;6.596;2024-03-06T04:51:44;4.40;99.90
52859;DHT22;38721;53.098;6.596;2024-03-06T04:54:09;4.40;99.90
52859;DHT22;38721;53.098;6.596;2024-03-06T04:56:35;4.40;99.90
52859;DHT22;38721;53.098;6.596;2024-03-06T04:59:01;4.50;99.90
52859;DHT22;38721;53.098;6.596;2024-03-06T05:01:29;4.40;99.90
52859;DHT22;38721;53.098;6.596;2024-03-06T05:03:55;4.50;99.90
52859;DHT22;38721;53.098;6.596;2024-03-06T05:06:22;4.40;99.90
52859;DHT22;38721;53.098;6.596;2024-03-06T05:08:48;4.40;99.90
52859;DHT22;38721;53.098;6.596;2024-03-06T05:11:14;4.40;99.90
52859;DHT22;38721;53.098;6.596;2024-03-06T05:13:39;4.50;99.90
52859;DHT22;38721;53.098;6.596;2024-03-06T05:16:06;4.50;99.90
52859;DHT22;38721;53.098;6.596;2024-03-06T05:18:34;4.40;99.90
52859;DHT22;38721;53.098;6.596;2024-03-06T05:21:00;4.40;99.90
52859;DHT22;38721;53.098;6.596;2024-03-06T05:23:26;4.40;99.90
52859;DHT22;38721;53.098;6.596;2024-03-06T05:25:52;4.50;99.90
52859;DHT22;38721;53.098;6.596;2024-03-06T05:28:17;4.50;99.90
52859;DHT22;38721;53.098;6.596;2024-03-06T05:30:43;4.50;99.90
52859;DHT22;38721;53.098;6.596;2024-03-06T05:33:09;4.40;99.90
52859;DHT22;38721;53.098;6.596;2024-03-06T05:35:35;4.50;99.90
52859;DHT22;38721;53.098;6.596;2024-03-06T05:38:00;4.40;99.90
52859;DHT22;38721;53.098;6.596;2024-03-06T05:40:26;4.50;99.90
52859;DHT22;38721;53.098;6.596;2024-03-06T05:42:52;4.40;99.90
52859;DHT22;38721;53.098;6.596;2024-03-06T05:45:18;4.50;99.90
52859;DHT22;38721;53.098;6.596;2024-03-06T05:47:44;4.40;99.90
52859;DHT22;38721;53.098;6.596;2024-03-06T05:50:09;4.40;99.90
52859;DHT22;38721;53.098;6.596;2024-03-06T05:52:36;4.40;99.90
52859;DHT22;38721;53.098;6.596;2024-03-06T05:55:03;4.50;99.90
52859;DHT22;38721;53.098;6.596;2024-03-06T05:57:31;4.40;99.90
52859;DHT22;38721;53.098;6.596;2024-03-06T05:59:57;4.50;99.90
52859;DHT22;38721;53.098;6.596;2024-03-06T06:02:23;4.40;99.90
52859;DHT22;38721;53.098;6.596;2024-03-06T06:04:49;4.40;99.90
52859;DHT22;38721;53.098;6.596;2024-03-06T06:07:15;4.40;99.90
52859;DHT22;38721;53.098;6.596;2024-03-06T06:09:41;4.50;99.90
52859;DHT22;38721;53.098;6.596;2024-03-06T06:12:07;4.40;99.90
52859;DHT22;38721;53.098;6.596;2024-03-06T06:14:33;4.50;99.90
52859;DHT22;38721;53.098;6.596;2024-03-06T06:17:01;4.40;99.90
52859;DHT22;38721;53.098;6.596;2024-03-06T06:19:28;4.40;99.90
52859;DHT22;38721;53.098;6.596;2024-03-06T06:21:54;4.50;99.90
52859;DHT22;38721;53.098;6.596;2024-03-06T06:24:20;4.50;99.90
52859;DHT22;38721;53.098;6.596;2024-03-06T06:26:46;4.40;99.90
52859;DHT22;38721;53.098;6.596;2024-03-06T06:29:12;4.60;99.90
52859;DHT22;38721;53.098;6.596;2024-03-06T06:31:38;4.60;99.90
52859;DHT22;38721;53.098;6.596;2024-03-06T06:34:04;4.60;99.90
52859;DHT22;38721;53.098;6.596;2024-03-06T06:36:30;4.50;99.90
52859;DHT22;38721;53.098;6.596;2024-03-06T06:38:55;4.60;99.90
52859;DHT22;38721;53.098;6.596;2024-03-06T06:41:22;4.60;99.90
52859;DHT22;38721;53.098;6.596;2024-03-06T06:43:50;4.50;99.90
52859;DHT22;38721;53.098;6.596;2024-03-06T06:46:18;4.50;99.90
52859;DHT22;38721;53.098;6.596;2024-03-06T06:48:44;4.50;99.90
52859;DHT22;38721;53.098;6.596;2024-03-06T06:51:09;4.50;99.90
52859;DHT22;38721;53.098;6.596;2024-03-06T06:53:35;4.50;99.90
52859;DHT22;38721;53.098;6.596;2024-03-06T06:56:01;4.60;99.90
52859;DHT22;38721;53.098;6.596;2024-03-06T06:58:27;4.60;99.90
52859;DHT22;38721;53.098;6.596;2024-03-06T07:00:53;4.60;99.90
52859;DHT22;38721;53.098;6.596;2024-03-06T07:03:19;4.50;99.90
52859;DHT22;38721;53.098;6.596;2024-03-06T07:05:47;4.60;99.90
52859;DHT22;38721;53.098;6.596;2024-03-06T07:08:13;4.60;99.90
52859;DHT22;38721;53.098;6.596;2024-03-06T07:10:39;4.70;99.90
52859;DHT22;38721;53.098;6.596;2024-03-06T07:13:04;4.70;99.90
52859;DHT22;38721;53.098;6.596;2024-03-06T07:15:31;4.60;99.90
52859;DHT22;38721;53.098;6.596;2024-03-06T07:17:58;4.70;99.90
52859;DHT22;38721;53.098;6.596;2024-03-06T07:20:24;4.70;99.90
52859;DHT22;38721;53.098;6.596;2024-03-06T07:22:49;4.70;99.90
52859;DHT22;38721;53.098;6.596;2024-03-06T07:25:16;4.70;99.90
52859;DHT22;38721;53.098;6.596;2024-03-06T07:27:48;4.80;99.90
52859;DHT22;38721;53.098;6.596;2024-03-06T07:30:28;4.80;99.90
52859;DHT22;38721;53.098;6.596;2024-03-06T07:33:03;4.70;99.90
52859;DHT22;38721;53.098;6.596;2024-03-06T07:35:49;4.80;99.90
52859;DHT22;38721;53.098;6.596;2024-03-06T07:38:21;4.90;99.90
52859;DHT22;38721;53.098;6.596;2024-03-06T07:40:49;4.90;99.90
52859;DHT22;38721;53.098;6.596;2024-03-06T07:43:21;4.90;99.90
52859;DHT22;38721;53.098;6.596;2024-03-06T07:45:53;4.90;99.90
52859;DHT22;38721;53.098;6.596;2024-03-06T07:48:58;4.90;99.90
52859;DHT22;38721;53.098;6.596;2024-03-06T07:51:24;4.90;99.90
52859;DHT22;38721;53.098;6.596;2024-03-06T07:53:50;4.90;99.90
52859;DHT22;38721;53.098;6.596;2024-03-06T07:56:16;5.00;99.90
52859;DHT22;38721;53.098;6.596;2024-03-06T07:58:42;5.00;99.90
52859;DHT22;38721;53.098;6.596;2024-03-06T08:01:09;5.00;99.90
52859;DHT22;38721;53.098;6.596;2024-03-06T08:03:34;4.90;99.90
52859;DHT22;38721;53.098;6.596;2024-03-06T08:06:00;5.00;99.90
52859;DHT22;38721;53.098;6.596;2024-03-06T08:08:26;5.10;99.90
52859;DHT22;38721;53.098;6.596;2024-03-06T08:10:51;5.00;99.90
52859;DHT22;38721;53.098;6.596;2024-03-06T08:13:17;5.00;99.90
52859;DHT22;38721;53.098;6.596;2024-03-06T08:15:45;5.00;99.90
52859;DHT22;38721;53.098;6.596;2024-03-06T08:18:11;5.10;99.90
52859;DHT22;38721;53.098;6.596;2024-03-06T08:20:38;5.10;99.90
52859;DHT22;38721;53.098;6.596;2024-03-06T08:23:04;5.10;99.90
52859;DHT22;38721;53.098;6.596;2024-03-06T08:25:30;5.10;99.90
52859;DHT22;38721;53.098;6.596;2024-03-06T08:27:58;5.20;99.90
52859;DHT22;38721;53.098;6.596;2024-03-06T08:30:25;5.10;99.90
52859;DHT22;38721;53.098;6.596;2024-03-06T08:32:51;5.10;99.90
52859;DHT22;38721;53.098;6.596;2024-03-06T08:35:16;5.20;99.90
52859;DHT22;38721;53.098;6.596;2024-03-06T08:37:44;5.20;99.90
52859;DHT22;38721;53.098;6.596;2024-03-06T08:40:10;5.10;99.90
52859;DHT22;38721;53.098;6.596;2024-03-06T08:42:49;5.20;99.90
52859;DHT22;38721;53.098;6.596;2024-03-06T08:45:18;5.20;99.90
52859;DHT22;38721;53.098;6.596;2024-03-06T08:47:44;5.20;99.90
52859;DHT22;38721;53.098;6.596;2024-03-06T08:50:11;5.20;99.90
52859;DHT22;38721;53.098;6.596;2024-03-06T08:52:38;5.10;99.90
52859;DHT22;38721;53.098;6.596;2024-03-06T08:55:05;5.20;99.90
52859;DHT22;38721;53.098;6.596;2024-03-06T08:57:32;5.20;99.90
52859;DHT22;38721;53.098;6.596;2024-03-06T08:59:58;5.20;99.90
52859;DHT22;38721;53.098;6.596;2024-03-06T09:02:24;5.20;99.90
52859;DHT22;38721;53.098;6.596;2024-03-06T09:04:51;5.20;99.90
52859;DHT22;38721;53.098;6.596;2024-03-06T09:07:20;5.20;99.90
52859;DHT22;38721;53.098;6.596;2024-03-06T09:09:50;5.40;99.90
52859;DHT22;38721;53.098;6.596;2024-03-06T09:12:17;5.40;99.90
52859;DHT22;38721;53.098;6.596;2024-03-06T09:14:43;5.50;99.90
52859;DHT22;38721;53.098;6.596;2024-03-06T09:17:10;5.70;99.90
52859;DHT22;38721;53.098;6.596;2024-03-06T09:19:38;5.80;99.90
52859;DHT22;38721;53.098;6.596;2024-03-06T09:22:04;5.90;99.90
52859;DHT22;38721;53.098;6.596;2024-03-06T09:24:30;6.00;99.90
52859;DHT22;38721;53.098;6.596;2024-03-06T09:26:56;6.10;99.90
52859;DHT22;38721;53.098;6.596;2024-03-06T09:29:21;6.20;99.90
52859;DHT22;38721;53.098;6.596;2024-03-06T09:31:47;6.30;99.90
52859;DHT22;38721;53.098;6.596;2024-03-06T09:34:14;6.50;99.90
52859;DHT22;38721;53.098;6.596;2024-03-06T09:36:41;6.50;99.90
52859;DHT22;38721;53.098;6.596;2024-03-06T09:39:14;6.60;99.90
52859;DHT22;38721;53.098;6.596;2024-03-06T09:41:50;6.50;99.90
52859;DHT22;38721;53.098;6.596;2024-03-06T09:44:16;6.60;99.90
52859;DHT22;38721;53.098;6.596;2024-03-06T09:46:44;6.80;99.90
52859;DHT22;38721;53.098;6.596;2024-03-06T09:49:11;6.90;99.90
52859;DHT22;38721;53.098;6.596;2024-03-06T09:51:39;6.90;99.90
52859;DHT22;38721;53.098;6.596;2024-03-06T09:54:07;7.00;99.90
52859;DHT22;38721;53.098;6.596;2024-03-06T09:56:33;7.00;99.90
52859;DHT22;38721;53.098;6.596;2024-03-06T09:58:59;6.90;99.90
52859;DHT22;38721;53.098;6.596;2024-03-06T10:01:26;7.00;99.90
52859;DHT22;38721;53.098;6.596;2024-03-06T10:03:53;7.20;99.90
52859;DHT22;38721;53.098;6.596;2024-03-06T10:06:19;7.20;99.90
52859;DHT22;38721;53.098;6.596;2024-03-06T10:08:46;7.20;99.90
52859;DHT22;38721;53.098;6.596;2024-03-06T10:11:18;7.40;99.90
52859;DHT22;38721;53.098;6.596;2024-03-06T10:13:43;7.40;99.90
52859;DHT22;38721;53.098;6.596;2024-03-06T10:16:09;7.40;99.90
52859;DHT22;38721;53.098;6.596;2024-03-06T10:18:36;7.40;99.90
52859;DHT22;38721;53.098;6.596;2024-03-06T10:21:04;7.40;99.90
52859;DHT22;38721;53.098;6.596;2024-03-06T10:23:31;7.40;99.90
52859;DHT22;38721;53.098;6.596;2024-03-06T10:25:57;7.30;99.90
52859;DHT22;38721;53.098;6.596;2024-03-06T10:28:24;7.50;99.90
52859;DHT22;38721;53.098;6.596;2024-03-06T10:30:50;7.60;99.90
52859;DHT22;38721;53.098;6.596;2024-03-06T10:33:18;7.70;99.90
52859;DHT22;38721;53.098;6.596;2024-03-06T10:35:47;7.70;99.90
52859;DHT22;38721;53.098;6.596;2024-03-06T10:38:19;7.60;99.90
52859;DHT22;38721;53.098;6.596;2024-03-06T10:40:45;7.70;99.90
52859;DHT22;38721;53.098;6.596;2024-03-06T10:43:12;7.80;99.90
52859;DHT22;38721;53.098;6.596;2024-03-06T10:45:54;8.00;99.90
52859;DHT22;38721;53.098;6.596;2024-03-06T10:48:23;8.10;99.90
52859;DHT22;38721;53.098;6.596;2024-03-06T10:50:52;8.20;99.90
52859;DHT22;38721;53.098;6.596;2024-03-06T10:53:18;8.20;99.90
52859;DHT22;38721;53.098;6.596;2024-03-06T10:55:44;8.00;99.90
52859;DHT22;38721;53.098;6.596;2024-03-06T10:58:11;8.30;99.90
52859;DHT22;38721;53.098;6.596;2024-03-06T11:00:44;8.20;99.90
52859;DHT22;38721;53.098;6.596;2024-03-06T11:03:11;8.20;99.90
52859;DHT22;38721;53.098;6.596;2024-03-06T11:05:41;8.30;99.90
52859;DHT22;38721;53.098;6.596;2024-03-06T11:08:14;7.90;99.90
52859;DHT22;38721;53.098;6.596;2024-03-06T11:10:41;8.40;99.90
52859;DHT22;38721;53.098;6.596;2024-03-06T11:15:46;8.50;99.90
52859;DHT22;38721;53.098;6.596;2024-03-06T11:24:12;8.70;99.90
52859;DHT22;38721;53.098;6.596;2024-03-06T11:26:55;8.60;99.90
52859;DHT22;38721;53.098;6.596;2024-03-06T11:29:23;8.60;99.90
52859;DHT22;38721;53.098;6.596;2024-03-06T11:32:03;8.60;99.90
52859;DHT22;38721;53.098;6.596;2024-03-06T11:34:29;8.60;99.90
52859;DHT22;38721;53.098;6.596;2024-03-06T11:37:00;8.70;99.90
52859;DHT22;38721;53.098;6.596;2024-03-06T11:39:33;8.60;99.90
52859;DHT22;38721;53.098;6.596;2024-03-06T11:42:02;8.60;99.90
52859;DHT22;38721;53.098;6.596;2024-03-06T11:44:28;8.70;99.90
52859;DHT22;38721;53.098;6.596;2024-03-06T11:49:24;8.70;99.90
52859;DHT22;38721;53.098;6.596;2024-03-06T11:51:55;8.80;99.90
52859;DHT22;38721;53.098;6.596;2024-03-06T11:54:22;8.80;99.90
52859;DHT22;38721;53.098;6.596;2024-03-06T11:56:54;8.90;99.90
52859;DHT22;38721;53.098;6.596;2024-03-06T11:59:27;8.90;99.90
52859;DHT22;38721;53.098;6.596;2024-03-06T12:01:55;8.70;99.90
52859;DHT22;38721;53.098;6.596;2024-03-06T12:04:21;8.80;99.90
52859;DHT22;38721;53.098;6.596;2024-03-06T12:06:47;9.00;99.90
52859;DHT22;38721;53.098;6.596;2024-03-06T12:09:14;9.00;99.90
52859;DHT22;38721;53.098;6.596;2024-03-06T12:11:41;8.80;99.90
52859;DHT22;38721;53.098;6.596;2024-03-06T12:14:17;9.10;99.90
52859;DHT22;38721;53.098;6.596;2024-03-06T12:17:04;9.20;99.90
52859;DHT22;38721;53.098;6.596;2024-03-06T12:19:34;9.10;99.90
52859;DHT22;38721;53.098;6.596;2024-03-06T12:22:00;9.20;99.90
52859;DHT22;38721;53.098;6.596;2024-03-06T12:24:26;9.30;99.90
52859;DHT22;38721;53.098;6.596;2024-03-06T12:27:03;9.20;99.90
52859;DHT22;38721;53.098;6.596;2024-03-06T12:29:30;9.20;99.90
52859;DHT22;38721;53.098;6.596;2024-03-06T12:32:04;9.20;99.90
52859;DHT22;38721;53.098;6.596;2024-03-06T12:34:30;9.40;99.90
52859;DHT22;38721;53.098;6.596;2024-03-06T12:36:56;9.20;99.90
52859;DHT22;38721;53.098;6.596;2024-03-06T12:39:33;9.50;99.90
52859;DHT22;38721;53.098;6.596;2024-03-06T12:41:59;9.50;99.90
52859;DHT22;38721;53.098;6.596;2024-03-06T12:44:24;9.50;99.90
52859;DHT22;38721;53.098;6.596;2024-03-06T12:46:50;9.70;99.90
52859;DHT22;38721;53.098;6.596;2024-03-06T12:49:16;9.50;99.90
52859;DHT22;38721;53.098;6.596;2024-03-06T12:51:41;9.70;99.90
52859;DHT22;38721;53.098;6.596;2024-03-06T12:54:07;9.70;99.90
52859;DHT22;38721;53.098;6.596;2024-03-06T12:56:34;9.80;99.90
52859;DHT22;38721;53.098;6.596;2024-03-06T12:58:59;9.70;99.90
52859;DHT22;38721;53.098;6.596;2024-03-06T13:01:25;10.00;99.90
52859;DHT22;38721;53.098;6.596;2024-03-06T13:03:51;9.80;99.90
52859;DHT22;38721;53.098;6.596;2024-03-06T13:06:17;9.80;99.90
52859;DHT22;38721;53.098;6.596;2024-03-06T13:08:42;9.70;99.90
52859;DHT22;38721;53.098;6.596;2024-03-06T13:11:08;10.00;99.90
52859;DHT22;38721;53.098;6.596;2024-03-06T13:13:35;10.00;99.90
52859;DHT22;38721;53.098;6.596;2024-03-06T13:16:01;10.30;99.90
52859;DHT22;38721;53.098;6.596;2024-03-06T13:18:27;10.30;99.90
52859;DHT22;38721;53.098;6.596;2024-03-06T13:20:52;10.30;99.90
52859;DHT22;38721;53.098;6.596;2024-03-06T13:23:19;10.40;99.90
52859;DHT22;38721;53.098;6.596;2024-03-06T13:25:45;10.20;99.90
52859;DHT22;38721;53.098;6.596;2024-03-06T13:28:12;10.40;99.90
52859;DHT22;38721;53.098;6.596;2024-03-06T13:30:37;10.50;99.90
52859;DHT22;38721;53.098;6.596;2024-03-06T13:33:06;10.40;99.90
52859;DHT22;38721;53.098;6.596;2024-03-06T13:35:32;10.50;99.90
52859;DHT22;38721;53.098;6.596;2024-03-06T13:37:58;10.70;99.90
52859;DHT22;38721;53.098;6.596;2024-03-06T13:40:24;10.70;99.90
52859;DHT22;38721;53.098;6.596;2024-03-06T13:42:52;10.60;99.90
52859;DHT22;38721;53.098;6.596;2024-03-06T13:45:18;10.70;99.90
52859;DHT22;38721;53.098;6.596;2024-03-06T13:47:44;10.80;99.90
52859;DHT22;38721;53.098;6.596;2024-03-06T13:50:14;10.70;99.90
52859;DHT22;38721;53.098;6.596;2024-03-06T13:52:41;10.90;99.90
52859;DHT22;38721;53.098;6.596;2024-03-06T13:55:07;10.90;99.90
52859;DHT22;38721;53.098;6.596;2024-03-06T13:57:34;10.50;99.90
52859;DHT22;38721;53.098;6.596;2024-03-06T14:00:05;10.90;99.90
52859;DHT22;38721;53.098;6.596;2024-03-06T14:02:32;10.90;99.90
52859;DHT22;38721;53.098;6.596;2024-03-06T14:04:58;10.90;99.90
52859;DHT22;38721;53.098;6.596;2024-03-06T14:07:24;11.00;99.90
52859;DHT22;38721;53.098;6.596;2024-03-06T14:09:50;11.00;99.90
52859;DHT22;38721;53.098;6.596;2024-03-06T14:12:16;11.10;99.90
52859;DHT22;38721;53.098;6.596;2024-03-06T14:14:42;10.90;99.90
52859;DHT22;38721;53.098;6.596;2024-03-06T14:17:08;11.10;99.90
52859;DHT22;38721;53.098;6.596;2024-03-06T14:19:34;11.00;99.90
52859;DHT22;38721;53.098;6.596;2024-03-06T14:22:00;11.00;99.90
52859;DHT22;38721;53.098;6.596;2024-03-06T14:24:26;11.10;99.90
52859;DHT22;38721;53.098;6.596;2024-03-06T14:26:51;11.10;99.90
52859;DHT22;38721;53.098;6.596;2024-03-06T14:29:17;11.00;99.90
52859;DHT22;38721;53.098;6.596;2024-03-06T14:31:43;10.90;99.90
52859;DHT22;38721;53.098;6.596;2024-03-06T14:34:09;10.70;99.90
52859;DHT22;38721;53.098;6.596;2024-03-06T14:36:36;10.70;99.90
52859;DHT22;38721;53.098;6.596;2024-03-06T14:39:01;10.40;99.90
52859;DHT22;38721;53.098;6.596;2024-03-06T14:41:27;10.30;99.90
52859;DHT22;38721;53.098;6.596;2024-03-06T14:43:53;10.50;99.90
52859;DHT22;38721;53.098;6.596;2024-03-06T14:46:19;10.60;99.90
52859;DHT22;38721;53.098;6.596;2024-03-06T14:48:45;10.50;99.90
52859;DHT22;38721;53.098;6.596;2024-03-06T14:51:11;10.50;99.90
52859;DHT22;38721;53.098;6.596;2024-03-06T14:53:37;10.70;99.90
52859;DHT22;38721;53.098;6.596;2024-03-06T14:56:04;10.60;99.90
52859;DHT22;38721;53.098;6.596;2024-03-06T14:58:30;10.70;99.90
52859;DHT22;38721;53.098;6.596;2024-03-06T15:00:55;10.70;99.90
52859;DHT22;38721;53.098;6.596;2024-03-06T15:03:21;10.80;99.90
52859;DHT22;38721;53.098;6.596;2024-03-06T15:05:46;10.70;99.90
52859;DHT22;38721;53.098;6.596;2024-03-06T15:08:12;11.00;99.90
52859;DHT22;38721;53.098;6.596;2024-03-06T15:10:38;10.90;99.90
52859;DHT22;38721;53.098;6.596;2024-03-06T15:13:04;10.90;99.90
52859;DHT22;38721;53.098;6.596;2024-03-06T15:15:30;10.60;99.90
52859;DHT22;38721;53.098;6.596;2024-03-06T15:17:57;10.50;99.90
52859;DHT22;38721;53.098;6.596;2024-03-06T15:20:23;10.20;99.90
52859;DHT22;38721;53.098;6.596;2024-03-06T15:22:49;10.40;99.90
52859;DHT22;38721;53.098;6.596;2024-03-06T15:25:14;10.30;99.90
52859;DHT22;38721;53.098;6.596;2024-03-06T15:27:41;10.60;99.90
52859;DHT22;38721;53.098;6.596;2024-03-06T15:30:09;10.40;99.90
52859;DHT22;38721;53.098;6.596;2024-03-06T15:32:36;11.80;99.90
52859;DHT22;38721;53.098;6.596;2024-03-06T15:35:02;12.50;99.90
52859;DHT22;38721;53.098;6.596;2024-03-06T15:37:29;12.90;99.90
52859;DHT22;38721;53.098;6.596;2024-03-06T15:39:55;13.50;99.90
52859;DHT22;38721;53.098;6.596;2024-03-06T15:42:22;13.60;99.90
52859;DHT22;38721;53.098;6.596;2024-03-06T15:44:49;14.30;99.90
52859;DHT22;38721;53.098;6.596;2024-03-06T15:47:19;14.80;99.90
52859;DHT22;38721;53.098;6.596;2024-03-06T15:49:45;14.70;99.90
52859;DHT22;38721;53.098;6.596;2024-03-06T15:52:12;14.90;99.90